Time;durP1;ratioP1;P1;durP2;ratioP2;P2;SDS_P1;SDS_P2;PMS_P1;PMS_P2;Temp;Humidity;BMP_temperature;BMP_pressure;BME280_temperature;BME280_humidity;BME280_pressure;Samples;Min_cycle;Max_cycle;Signal;HPM_P1;HPM_P2
2022/03/10 00:00:30;;;;;;;;;;;6.70;57.10;;;;;;2288961;59;20077;-76
2022/03/10 00:02:56;;;;;;;;;;;6.70;56.80;;;;;;2289101;59;20088;-76
2022/03/10 00:05:23;;;;;;;;;;;6.70;56.90;;;;;;2290586;55;20137;-76
2022/03/10 00:07:49;;;;;;;;;;;6.60;56.80;;;;;;2307561;55;20302;-76
2022/03/10 00:10:16;;;;;;;;;;;6.60;57.20;;;;;;2312654;55;20375;-77
2022/03/10 00:12:49;;;;;;;;;;;6.60;57.30;;;;;;2289415;59;20125;-76
2022/03/10 00:15:17;;;;;;;;;;;6.60;57.30;;;;;;2293843;55;20084;-76
2022/03/10 00:17:44;;;;;;;;;;;6.60;57.80;;;;;;2302476;55;20072;-76
2022/03/10 00:20:11;;;;;;;;;;;6.60;58.30;;;;;;2291345;55;20096;-76
2022/03/10 00:22:45;;;;;;;;;;;6.70;58.60;;;;;;2379280;54;20112;-77
2022/03/10 00:25:12;;;;;;;;;;;6.70;58.50;;;;;;2288025;59;20077;-77
2022/03/10 00:27:38;;;;;;;;;;;6.70;57.90;;;;;;2290025;59;20435;-76
2022/03/10 00:30:07;;;;;;;;;;;6.70;57.80;;;;;;2289324;59;20073;-76
2022/03/10 00:32:40;;;;;;;;;;;6.70;57.70;;;;;;2289614;59;20188;-76
2022/03/10 00:35:07;;;;;;;;;;;6.70;57.90;;;;;;2381713;55;20307;-76
2022/03/10 00:37:34;;;;;;;;;;;6.80;57.60;;;;;;2289671;59;20692;-76
2022/03/10 00:40:00;;;;;;;;;;;6.80;57.60;;;;;;2369741;55;20077;-76
2022/03/10 00:42:27;;;;;;;;;;;6.80;57.60;;;;;;2288012;59;20092;-77
2022/03/10 00:44:53;;;;;;;;;;;6.80;57.40;;;;;;2289712;59;20132;-76
2022/03/10 00:47:20;;;;;;;;;;;6.80;57.40;;;;;;2307462;55;20101;-76
2022/03/10 00:49:46;;;;;;;;;;;6.80;57.60;;;;;;2289477;59;20072;-77
2022/03/10 00:52:15;;;;;;;;;;;6.80;57.50;;;;;;2320588;55;20083;-76
2022/03/10 00:54:42;;;;;;;;;;;6.80;58.20;;;;;;2289669;59;20092;-76
2022/03/10 00:57:08;;;;;;;;;;;6.80;57.80;;;;;;2347239;55;20096;-76
2022/03/10 00:59:35;;;;;;;;;;;6.80;57.50;;;;;;2322570;54;20201;-75
2022/03/10 01:02:01;;;;;;;;;;;6.80;57.40;;;;;;2279377;59;20125;-76
2022/03/10 01:04:28;;;;;;;;;;;6.80;57.40;;;;;;2279679;59;20069;-76
2022/03/10 01:06:54;;;;;;;;;;;6.80;57.70;;;;;;2278252;59;20352;-77
2022/03/10 01:09:21;;;;;;;;;;;6.80;57.70;;;;;;2278965;59;20176;-77
2022/03/10 01:11:47;;;;;;;;;;;6.80;57.90;;;;;;2279497;59;20198;-77
2022/03/10 01:14:14;;;;;;;;;;;6.80;57.40;;;;;;2278962;59;20082;-75
2022/03/10 01:16:40;;;;;;;;;;;6.80;57.40;;;;;;2277931;59;20125;-76
2022/03/10 01:19:08;;;;;;;;;;;6.70;57.70;;;;;;2279011;59;20373;-76
2022/03/10 01:21:34;;;;;;;;;;;6.80;57.70;;;;;;2279722;59;20144;-76
2022/03/10 01:24:01;;;;;;;;;;;6.70;57.80;;;;;;2278640;59;20085;-75
2022/03/10 01:26:27;;;;;;;;;;;6.70;57.80;;;;;;2278161;59;20114;-77
2022/03/10 01:28:54;;;;;;;;;;;6.70;57.90;;;;;;2510771;55;20125;-76
2022/03/10 01:31:20;;;;;;;;;;;6.70;58.10;;;;;;2279019;59;20124;-75
2022/03/10 01:33:47;;;;;;;;;;;6.70;58.40;;;;;;2279328;59;20328;-76
2022/03/10 01:36:13;;;;;;;;;;;6.70;58.50;;;;;;2511478;55;20125;-77
2022/03/10 01:38:42;;;;;;;;;;;6.70;58.20;;;;;;2511445;55;20109;-77
2022/03/10 01:41:09;;;;;;;;;;;6.80;58.70;;;;;;2278625;59;20117;-77
2022/03/10 01:43:54;;;;;;;;;;;6.70;58.10;;;;;;2279299;59;20121;-77
2022/03/10 01:46:20;;;;;;;;;;;6.70;58.10;;;;;;2279394;59;20103;-75
2022/03/10 01:48:47;;;;;;;;;;;6.70;58.00;;;;;;2278817;59;20065;-77
2022/03/10 01:51:14;;;;;;;;;;;6.70;57.80;;;;;;2279254;59;20073;-76
2022/03/10 01:53:41;;;;;;;;;;;6.60;58.10;;;;;;2279412;59;20157;-77
2022/03/10 01:56:07;;;;;;;;;;;6.60;58.10;;;;;;2279355;59;20069;-76
2022/03/10 01:58:34;;;;;;;;;;;6.60;58.00;;;;;;2279176;59;20117;-76
2022/03/10 02:01:00;;;;;;;;;;;6.60;57.80;;;;;;2278842;59;20125;-76
2022/03/10 02:03:27;;;;;;;;;;;6.60;57.90;;;;;;2278930;59;20121;-77
2022/03/10 02:05:54;;;;;;;;;;;6.60;57.80;;;;;;2279454;59;20069;-76
2022/03/10 02:11:06;;;;;;;;;;;6.60;57.60;;;;;;2278867;59;20148;-76
2022/03/10 02:13:32;;;;;;;;;;;6.60;58.00;;;;;;2511109;55;20065;-76
2022/03/10 02:18:44;;;;;;;;;;;6.60;58.10;;;;;;2278801;59;20085;-77
2022/03/10 02:21:10;;;;;;;;;;;6.50;58.00;;;;;;2279017;59;20100;-77
2022/03/10 02:23:37;;;;;;;;;;;6.50;58.30;;;;;;2278944;59;20145;-77
2022/03/10 02:26:05;;;;;;;;;;;6.50;58.10;;;;;;2279322;59;20089;-77
2022/03/10 02:28:32;;;;;;;;;;;6.60;58.40;;;;;;2278990;59;20115;-76
2022/03/10 02:30:59;;;;;;;;;;;6.60;58.40;;;;;;2279010;59;20140;-76
2022/03/10 02:33:25;;;;;;;;;;;6.60;57.80;;;;;;2511120;55;20114;-76
2022/03/10 02:35:52;;;;;;;;;;;6.60;58.30;;;;;;2511383;55;20057;-76
2022/03/10 02:38:19;;;;;;;;;;;6.60;58.40;;;;;;2279180;59;20348;-76
2022/03/10 02:40:45;;;;;;;;;;;6.50;58.30;;;;;;2279267;59;20132;-77
2022/03/10 02:43:12;;;;;;;;;;;6.50;59.30;;;;;;2279361;59;20130;-77
2022/03/10 02:45:38;;;;;;;;;;;6.50;58.50;;;;;;2277423;59;20133;-77
2022/03/10 02:48:05;;;;;;;;;;;6.50;58.50;;;;;;2279065;59;20116;-76
2022/03/10 02:50:32;;;;;;;;;;;6.50;58.20;;;;;;2278549;59;20145;-76
2022/03/10 02:52:58;;;;;;;;;;;6.50;58.20;;;;;;2278821;59;20081;-76
2022/03/10 02:55:25;;;;;;;;;;;6.40;58.20;;;;;;2279331;59;20088;-76
2022/03/10 02:57:51;;;;;;;;;;;6.40;58.40;;;;;;2279323;59;20065;-76
2022/03/10 03:00:18;;;;;;;;;;;6.40;58.30;;;;;;2278953;59;20073;-76
2022/03/10 03:02:46;;;;;;;;;;;6.40;58.30;;;;;;2511375;55;20077;-75
2022/03/10 03:05:13;;;;;;;;;;;6.40;58.20;;;;;;2278929;59;20093;-75
2022/03/10 03:07:39;;;;;;;;;;;6.30;58.50;;;;;;2277732;59;20073;-77
2022/03/10 03:10:07;;;;;;;;;;;6.30;58.50;;;;;;2278583;59;20129;-75
2022/03/10 03:12:34;;;;;;;;;;;6.30;58.40;;;;;;2278860;59;20080;-76
2022/03/10 03:15:00;;;;;;;;;;;6.30;58.30;;;;;;2279508;59;20153;-75
2022/03/10 03:17:27;;;;;;;;;;;6.30;58.50;;;;;;2279553;59;20351;-76
2022/03/10 03:19:54;;;;;;;;;;;6.30;58.30;;;;;;2510348;55;20084;-76
2022/03/10 03:22:20;;;;;;;;;;;6.30;58.40;;;;;;2511301;55;20587;-76
2022/03/10 03:24:47;;;;;;;;;;;6.20;58.40;;;;;;2278922;59;20109;-76
2022/03/10 03:27:13;;;;;;;;;;;6.20;58.30;;;;;;2279017;59;20349;-76
2022/03/10 03:29:40;;;;;;;;;;;6.20;58.40;;;;;;2279049;59;20109;-76
2022/03/10 03:32:07;;;;;;;;;;;6.10;58.20;;;;;;2278996;59;20137;-76
2022/03/10 03:34:33;;;;;;;;;;;6.10;58.60;;;;;;2278847;59;20061;-75
2022/03/10 03:37:00;;;;;;;;;;;6.10;58.40;;;;;;2510980;55;20148;-76
2022/03/10 03:39:26;;;;;;;;;;;6.10;58.40;;;;;;2279138;59;20113;-77
2022/03/10 03:41:53;;;;;;;;;;;6.10;58.60;;;;;;2278908;59;20085;-76
2022/03/10 03:44:19;;;;;;;;;;;6.00;58.60;;;;;;2279213;59;20081;-75
2022/03/10 03:46:46;;;;;;;;;;;6.10;58.70;;;;;;2279178;59;20100;-76
2022/03/10 03:49:12;;;;;;;;;;;6.10;59.10;;;;;;2278814;59;20069;-75
2022/03/10 03:51:39;;;;;;;;;;;6.10;58.60;;;;;;2279363;59;20069;-75
2022/03/10 03:54:07;;;;;;;;;;;6.00;59.30;;;;;;2279380;59;20121;-76
2022/03/10 03:56:34;;;;;;;;;;;6.00;58.60;;;;;;2279107;59;20084;-76
2022/03/10 03:59:00;;;;;;;;;;;6.00;58.80;;;;;;2511242;55;20096;-77
2022/03/10 04:01:27;;;;;;;;;;;6.00;58.70;;;;;;2278948;59;20194;-75
2022/03/10 04:03:54;;;;;;;;;;;6.00;59.20;;;;;;2277321;59;20108;-76
2022/03/10 04:06:21;;;;;;;;;;;6.00;58.70;;;;;;2279083;59;20145;-76
2022/03/10 04:08:47;;;;;;;;;;;6.00;58.70;;;;;;2278901;59;20080;-75
2022/03/10 04:11:14;;;;;;;;;;;6.00;58.60;;;;;;2511154;55;20108;-75
2022/03/10 04:13:40;;;;;;;;;;;6.00;58.80;;;;;;2279291;59;20120;-76
2022/03/10 04:16:07;;;;;;;;;;;5.90;58.60;;;;;;2279210;59;20124;-76
2022/03/10 04:18:33;;;;;;;;;;;5.90;58.60;;;;;;2279219;59;20140;-75
2022/03/10 04:21:00;;;;;;;;;;;5.90;58.80;;;;;;2277131;59;20069;-75
2022/03/10 04:23:26;;;;;;;;;;;5.90;59.00;;;;;;2279301;59;20057;-76
2022/03/10 04:25:53;;;;;;;;;;;5.90;58.90;;;;;;2279285;59;20057;-76
2022/03/10 04:28:19;;;;;;;;;;;5.90;58.90;;;;;;2279330;59;20121;-76
2022/03/10 04:30:46;;;;;;;;;;;5.90;59.50;;;;;;2278725;59;20073;-76
2022/03/10 04:33:12;;;;;;;;;;;5.90;58.90;;;;;;2279126;59;20126;-75
2022/03/10 04:35:39;;;;;;;;;;;5.90;59.00;;;;;;2279220;59;20136;-75
2022/03/10 04:38:06;;;;;;;;;;;5.90;59.00;;;;;;2277240;59;20081;-75
2022/03/10 04:40:33;;;;;;;;;;;5.90;59.10;;;;;;2278640;59;20137;-75
2022/03/10 04:43:00;;;;;;;;;;;5.90;59.60;;;;;;2511345;55;20113;-75
2022/03/10 04:45:26;;;;;;;;;;;5.90;59.00;;;;;;2278727;59;20124;-76
2022/03/10 04:47:53;;;;;;;;;;;5.80;59.00;;;;;;2278978;59;20363;-76
2022/03/10 04:50:19;;;;;;;;;;;5.80;59.10;;;;;;2278675;59;20132;-75
2022/03/10 04:52:46;;;;;;;;;;;5.80;59.00;;;;;;2279061;59;20077;-75
2022/03/10 04:55:13;;;;;;;;;;;5.80;59.30;;;;;;2279214;59;20069;-75
2022/03/10 04:57:40;;;;;;;;;;;5.80;60.00;;;;;;2511078;55;20061;-75
2022/03/10 05:00:10;;;;;;;;;;;5.80;59.40;;;;;;2510977;55;20073;-75
2022/03/10 05:02:38;;;;;;;;;;;5.80;59.50;;;;;;2278911;59;20057;-75
2022/03/10 05:05:06;;;;;;;;;;;5.80;59.70;;;;;;2279020;59;20061;-75
2022/03/10 05:07:32;;;;;;;;;;;5.80;59.70;;;;;;2278106;59;20212;-75
2022/03/10 05:09:59;;;;;;;;;;;5.70;59.60;;;;;;2510304;55;20081;-75
2022/03/10 05:12:25;;;;;;;;;;;5.70;59.70;;;;;;2278543;59;20543;-75
2022/03/10 05:14:52;;;;;;;;;;;5.70;59.90;;;;;;2279243;59;20072;-76
2022/03/10 05:17:18;;;;;;;;;;;5.70;59.80;;;;;;2279232;59;20310;-75
2022/03/10 05:19:45;;;;;;;;;;;5.70;59.80;;;;;;2278588;59;20088;-76
2022/03/10 05:22:11;;;;;;;;;;;5.70;59.90;;;;;;2279156;59;20076;-75
2022/03/10 05:24:38;;;;;;;;;;;5.70;60.00;;;;;;2278621;59;20371;-75
2022/03/10 05:27:04;;;;;;;;;;;5.70;59.90;;;;;;2279011;59;20387;-76
2022/03/10 05:29:30;;;;;;;;;;;5.70;59.90;;;;;;2278718;59;20106;-76
2022/03/10 05:31:57;;;;;;;;;;;5.60;59.80;;;;;;2279384;59;20057;-75
2022/03/10 05:34:23;;;;;;;;;;;5.60;59.90;;;;;;2279148;59;20077;-76
2022/03/10 05:36:50;;;;;;;;;;;5.60;59.90;;;;;;2279260;59;20419;-75
2022/03/10 05:39:16;;;;;;;;;;;5.60;59.90;;;;;;2279091;59;20068;-75
2022/03/10 05:41:43;;;;;;;;;;;5.60;59.90;;;;;;2279128;59;20444;-76
2022/03/10 05:44:09;;;;;;;;;;;5.60;60.00;;;;;;2279766;59;20085;-75
2022/03/10 05:46:36;;;;;;;;;;;5.60;59.90;;;;;;2279483;59;20081;-75
2022/03/10 05:49:02;;;;;;;;;;;5.60;60.20;;;;;;2278915;59;20303;-76
2022/03/10 05:51:29;;;;;;;;;;;5.60;60.20;;;;;;2279526;59;20394;-75
2022/03/10 05:53:55;;;;;;;;;;;5.60;60.20;;;;;;2510959;55;20080;-76
2022/03/10 05:56:22;;;;;;;;;;;5.60;60.30;;;;;;2509957;55;20057;-75
2022/03/10 05:58:48;;;;;;;;;;;5.60;60.20;;;;;;2279153;59;20057;-75
2022/03/10 06:01:15;;;;;;;;;;;5.60;60.30;;;;;;2511566;55;20380;-75
2022/03/10 06:03:42;;;;;;;;;;;5.60;60.20;;;;;;2279773;59;20140;-76
2022/03/10 06:06:09;;;;;;;;;;;5.60;60.20;;;;;;2279661;59;20189;-75
2022/03/10 06:08:35;;;;;;;;;;;5.50;60.20;;;;;;2279335;59;20076;-75
2022/03/10 06:11:04;;;;;;;;;;;5.50;60.30;;;;;;2277470;59;20081;-75
2022/03/10 06:13:30;;;;;;;;;;;5.50;60.30;;;;;;2278654;59;20169;-76
2022/03/10 06:15:57;;;;;;;;;;;5.50;60.40;;;;;;2279503;59;20080;-75
2022/03/10 06:18:23;;;;;;;;;;;5.50;60.40;;;;;;2279108;59;21091;-75
2022/03/10 06:20:50;;;;;;;;;;;5.40;60.30;;;;;;2278911;59;20304;-76
2022/03/10 06:23:16;;;;;;;;;;;5.50;60.40;;;;;;2279239;59;20081;-76
2022/03/10 06:25:43;;;;;;;;;;;5.50;60.40;;;;;;2279150;59;20132;-76
2022/03/10 06:28:09;;;;;;;;;;;5.50;60.40;;;;;;2279310;59;20125;-75
2022/03/10 06:30:36;;;;;;;;;;;5.50;60.30;;;;;;2511114;55;20089;-75
2022/03/10 06:33:02;;;;;;;;;;;5.50;60.50;;;;;;2511702;54;20117;-75
2022/03/10 06:35:29;;;;;;;;;;;5.50;60.50;;;;;;2279701;59;20105;-75
2022/03/10 06:37:55;;;;;;;;;;;5.50;60.50;;;;;;2279279;59;20105;-75
2022/03/10 06:40:22;;;;;;;;;;;5.50;60.50;;;;;;2279243;59;20077;-75
2022/03/10 06:42:48;;;;;;;;;;;5.50;60.30;;;;;;2279504;59;20076;-75
2022/03/10 06:45:15;;;;;;;;;;;5.50;60.30;;;;;;2279387;59;20068;-75
2022/03/10 06:47:41;;;;;;;;;;;5.50;60.30;;;;;;2511384;55;20169;-75
2022/03/10 06:50:09;;;;;;;;;;;5.50;60.50;;;;;;2279212;59;20088;-75
2022/03/10 06:52:35;;;;;;;;;;;5.50;61.40;;;;;;2511362;55;20085;-75
2022/03/10 06:55:02;;;;;;;;;;;5.50;60.70;;;;;;2279117;59;20117;-75
2022/03/10 06:57:28;;;;;;;;;;;5.50;60.70;;;;;;2279372;59;20326;-75
2022/03/10 06:59:55;;;;;;;;;;;5.50;61.50;;;;;;2283441;55;20340;-75
2022/03/10 07:02:22;;;;;;;;;;;5.50;60.90;;;;;;2252786;60;20070;-75
2022/03/10 07:04:49;;;;;;;;;;;5.50;61.10;;;;;;2253050;60;20299;-75
2022/03/10 07:07:15;;;;;;;;;;;5.50;61.30;;;;;;2275275;56;20134;-75
2022/03/10 07:09:43;;;;;;;;;;;5.50;61.40;;;;;;2252181;60;20082;-74
2022/03/10 07:12:10;;;;;;;;;;;5.50;61.40;;;;;;2252871;60;20090;-74
2022/03/10 07:14:36;;;;;;;;;;;5.60;61.60;;;;;;2253455;60;20150;-74
2022/03/10 07:17:03;;;;;;;;;;;5.60;61.40;;;;;;2274445;56;20320;-75
2022/03/10 07:19:30;;;;;;;;;;;5.70;61.40;;;;;;2276356;56;20085;-74
2022/03/10 07:21:56;;;;;;;;;;;5.70;61.40;;;;;;2253005;60;20094;-75
2022/03/10 07:24:25;;;;;;;;;;;5.80;61.30;;;;;;2253604;60;20129;-74
2022/03/10 07:26:52;;;;;;;;;;;5.70;61.30;;;;;;2252190;60;20102;-77
2022/03/10 07:29:18;;;;;;;;;;;5.80;61.60;;;;;;2280774;56;20098;-75
2022/03/10 07:31:45;;;;;;;;;;;5.80;61.50;;;;;;2253274;60;20066;-74
2022/03/10 07:34:12;;;;;;;;;;;5.80;61.40;;;;;;2253102;60;20185;-76
2022/03/10 07:36:40;;;;;;;;;;;5.90;61.40;;;;;;2253311;60;20078;-76
2022/03/10 07:39:07;;;;;;;;;;;5.90;61.20;;;;;;2264716;56;20086;-76
2022/03/10 07:41:33;;;;;;;;;;;5.90;61.00;;;;;;2253109;60;20090;-74
2022/03/10 07:44:00;;;;;;;;;;;6.00;61.10;;;;;;2251618;60;20337;-74
2022/03/10 07:46:26;;;;;;;;;;;6.00;61.10;;;;;;2253424;56;20129;-74
2022/03/10 07:48:53;;;;;;;;;;;6.00;61.10;;;;;;2252077;60;20337;-76
2022/03/10 07:51:19;;;;;;;;;;;6.00;61.20;;;;;;2252782;60;20368;-76
2022/03/10 07:53:46;;;;;;;;;;;6.10;61.30;;;;;;2253090;60;20078;-75
2022/03/10 07:56:12;;;;;;;;;;;6.10;61.30;;;;;;2252928;60;20129;-74
2022/03/10 07:58:39;;;;;;;;;;;6.10;61.30;;;;;;2252972;60;20077;-75
2022/03/10 08:01:06;;;;;;;;;;;6.20;61.30;;;;;;2259410;56;20169;-74
2022/03/10 08:03:32;;;;;;;;;;;6.30;61.40;;;;;;2251638;56;20114;-76
2022/03/10 08:05:59;;;;;;;;;;;6.30;61.30;;;;;;2252683;60;20078;-74
2022/03/10 08:08:25;;;;;;;;;;;6.30;61.30;;;;;;2252691;60;20385;-76
2022/03/10 08:10:52;;;;;;;;;;;6.30;60.30;;;;;;2252180;60;20126;-74
2022/03/10 08:13:19;;;;;;;;;;;6.30;60.40;;;;;;2252007;60;20126;-74
2022/03/10 08:15:45;;;;;;;;;;;6.40;60.50;;;;;;2252202;60;20400;-74
2022/03/10 08:18:12;;;;;;;;;;;6.40;60.60;;;;;;2252421;60;20085;-77
2022/03/10 08:20:39;;;;;;;;;;;6.50;60.90;;;;;;2252098;60;20086;-77
2022/03/10 08:23:06;;;;;;;;;;;6.50;61.00;;;;;;2279523;56;20178;-77
2022/03/10 08:25:32;;;;;;;;;;;6.60;60.70;;;;;;2265148;56;20074;-77
2022/03/10 08:27:59;;;;;;;;;;;6.60;60.70;;;;;;2255725;56;20078;-77
2022/03/10 08:30:26;;;;;;;;;;;6.70;60.60;;;;;;2251931;60;20073;-75
2022/03/10 08:32:52;;;;;;;;;;;6.80;60.70;;;;;;2252696;60;20170;-76
2022/03/10 08:35:18;;;;;;;;;;;6.80;60.00;;;;;;2252341;60;20478;-74
2022/03/10 08:37:45;;;;;;;;;;;6.80;60.10;;;;;;2252466;60;20074;-77
2022/03/10 08:40:15;;;;;;;;;;;6.90;60.00;;;;;;2252403;60;20141;-76
2022/03/10 08:42:42;;;;;;;;;;;6.90;60.60;;;;;;2265849;56;20270;-74
2022/03/10 08:45:09;;;;;;;;;;;7.00;59.90;;;;;;2252199;60;20050;-77
2022/03/10 08:47:36;;;;;;;;;;;7.10;59.70;;;;;;2252774;60;20154;-77
2022/03/10 08:50:03;;;;;;;;;;;7.10;59.80;;;;;;2252184;60;20130;-74
2022/03/10 08:52:29;;;;;;;;;;;7.10;59.40;;;;;;2252399;60;20070;-77
2022/03/10 08:54:56;;;;;;;;;;;7.10;59.40;;;;;;2252281;60;20146;-74
2022/03/10 08:57:22;;;;;;;;;;;7.20;60.40;;;;;;2252813;60;20117;-75
2022/03/10 08:59:50;;;;;;;;;;;7.30;59.10;;;;;;2251045;60;20328;-74
2022/03/10 09:02:17;;;;;;;;;;;7.30;58.90;;;;;;2253629;56;20102;-75
2022/03/10 09:04:43;;;;;;;;;;;7.30;59.70;;;;;;2252799;60;20163;-74
2022/03/10 09:07:10;;;;;;;;;;;7.30;59.20;;;;;;2259131;56;20074;-78
2022/03/10 09:09:37;;;;;;;;;;;7.40;59.30;;;;;;2251230;60;20081;-74
2022/03/10 09:12:05;;;;;;;;;;;7.50;59.20;;;;;;2251043;60;20082;-74
2022/03/10 09:14:31;;;;;;;;;;;7.50;59.20;;;;;;2252873;60;20082;-77
2022/03/10 09:16:58;;;;;;;;;;;7.50;59.10;;;;;;2253305;60;20220;-74
2022/03/10 09:19:24;;;;;;;;;;;7.60;59.30;;;;;;2250935;60;20066;-74
2022/03/10 09:21:51;;;;;;;;;;;7.60;59.30;;;;;;2252819;60;20113;-74
2022/03/10 09:24:18;;;;;;;;;;;7.70;59.30;;;;;;2276387;56;20082;-74
2022/03/10 09:26:44;;;;;;;;;;;7.70;59.20;;;;;;2252896;60;20078;-74
2022/03/10 09:29:11;;;;;;;;;;;7.80;58.90;;;;;;2252746;60;20114;-77
2022/03/10 09:31:38;;;;;;;;;;;7.90;58.80;;;;;;2252867;60;20134;-76
2022/03/10 09:34:04;;;;;;;;;;;7.90;58.80;;;;;;2253184;60;20130;-77
2022/03/10 09:36:31;;;;;;;;;;;7.90;58.90;;;;;;2250970;60;20090;-77
2022/03/10 09:38:57;;;;;;;;;;;8.00;58.70;;;;;;2252880;60;20118;-76
2022/03/10 09:41:25;;;;;;;;;;;8.00;58.00;;;;;;2253082;60;20109;-77
2022/03/10 09:43:51;;;;;;;;;;;8.10;58.10;;;;;;2252919;60;20145;-77
2022/03/10 09:46:18;;;;;;;;;;;8.10;58.20;;;;;;2253122;60;20098;-75
2022/03/10 09:51:21;;;;;;;;;;;8.20;58.10;;;;;;2365042;52;20129;-76
2022/03/10 09:53:47;;;;;;;;;;;8.20;58.10;;;;;;2349956;57;20608;-76
2022/03/10 09:56:14;;;;;;;;;;;8.30;58.10;;;;;;2370792;53;20074;-76
2022/03/10 09:58:41;;;;;;;;;;;8.40;57.60;;;;;;2350455;57;20066;-76
2022/03/10 10:01:07;;;;;;;;;;;8.40;57.60;;;;;;2391481;52;20137;-76
2022/03/10 10:03:34;;;;;;;;;;;8.40;56.80;;;;;;2373926;53;20082;-76
2022/03/10 10:06:01;;;;;;;;;;;8.40;56.90;;;;;;2350204;57;20089;-76
2022/03/10 10:08:30;;;;;;;;;;;8.50;57.20;;;;;;2350509;57;20058;-75
2022/03/10 10:10:59;;;;;;;;;;;8.50;57.00;;;;;;2349860;57;20094;-76
2022/03/10 10:13:27;;;;;;;;;;;8.50;57.00;;;;;;2350264;57;20133;-76
2022/03/10 10:15:55;;;;;;;;;;;8.60;57.10;;;;;;2370452;53;20082;-76
2022/03/10 10:18:22;;;;;;;;;;;8.70;57.10;;;;;;2350576;57;20059;-76
2022/03/10 10:20:49;;;;;;;;;;;8.70;56.90;;;;;;2350130;57;20055;-76
2022/03/10 10:23:17;;;;;;;;;;;8.80;56.60;;;;;;2351334;53;20078;-76
2022/03/10 10:25:50;;;;;;;;;;;8.80;55.70;;;;;;2349532;57;20114;-75
2022/03/10 10:28:27;;;;;;;;;;;8.90;55.60;;;;;;2350788;57;20075;-76
2022/03/10 10:30:58;;;;;;;;;;;8.90;55.70;;;;;;2350418;57;20070;-76
2022/03/10 10:33:25;;;;;;;;;;;9.00;55.40;;;;;;2351211;57;20109;-75
2022/03/10 10:35:51;;;;;;;;;;;9.00;55.20;;;;;;2350948;57;20362;-76
2022/03/10 10:38:28;;;;;;;;;;;9.10;54.80;;;;;;2351001;57;20118;-76
2022/03/10 10:41:13;;;;;;;;;;;9.10;54.70;;;;;;2374012;53;20082;-76
2022/03/10 10:43:40;;;;;;;;;;;9.10;55.10;;;;;;2354574;53;20114;-76
2022/03/10 10:46:07;;;;;;;;;;;9.20;55.00;;;;;;2350352;57;20255;-75
2022/03/10 10:48:44;;;;;;;;;;;9.30;54.60;;;;;;2351042;57;20424;-75
2022/03/10 10:51:11;;;;;;;;;;;9.40;54.30;;;;;;2349988;57;20082;-76
2022/03/10 10:53:39;;;;;;;;;;;9.40;54.30;;;;;;2350823;57;20078;-75
2022/03/10 10:56:06;;;;;;;;;;;9.60;54.60;;;;;;2349981;57;20070;-75
2022/03/10 10:58:33;;;;;;;;;;;9.60;54.60;;;;;;2367244;53;20293;-75
2022/03/10 11:00:59;;;;;;;;;;;9.70;54.40;;;;;;2348289;57;20141;-75
2022/03/10 11:03:28;;;;;;;;;;;9.80;54.30;;;;;;2349415;57;20166;-75
2022/03/10 11:05:55;;;;;;;;;;;9.90;53.20;;;;;;2348746;57;20138;-75
2022/03/10 11:08:24;;;;;;;;;;;10.00;52.50;;;;;;2367031;53;20058;-75
2022/03/10 11:10:51;;;;;;;;;;;10.00;52.50;;;;;;2347836;57;20075;-76
2022/03/10 11:13:18;;;;;;;;;;;10.20;53.00;;;;;;2349510;57;20083;-76
2022/03/10 11:15:45;;;;;;;;;;;10.20;52.70;;;;;;2349798;57;20078;-76
2022/03/10 11:18:12;;;;;;;;;;;10.30;52.50;;;;;;2383176;53;20074;-75
2022/03/10 11:20:40;;;;;;;;;;;10.40;51.60;;;;;;2369698;53;20074;-76
2022/03/10 11:23:12;;;;;;;;;;;10.40;51.60;;;;;;2349451;57;20075;-75
2022/03/10 11:25:43;;;;;;;;;;;10.50;51.10;;;;;;2349335;57;20118;-75
2022/03/10 11:28:11;;;;;;;;;;;10.60;51.40;;;;;;2349423;57;20066;-75
2022/03/10 11:30:38;;;;;;;;;;;10.80;52.40;;;;;;2376719;53;20078;-75
2022/03/10 11:33:06;;;;;;;;;;;10.90;51.90;;;;;;2349109;57;20105;-75
2022/03/10 11:35:37;;;;;;;;;;;11.00;52.10;;;;;;2356269;53;20115;-76
2022/03/10 11:38:03;;;;;;;;;;;11.10;50.30;;;;;;2348482;55;20066;-76
2022/03/10 11:40:49;;;;;;;;;;;11.20;51.30;;;;;;2349777;57;20070;-75
2022/03/10 11:43:20;;;;;;;;;;;11.30;50.40;;;;;;2348459;57;20059;-75
2022/03/10 11:45:47;;;;;;;;;;;11.40;50.30;;;;;;2349659;57;20134;-76
2022/03/10 11:48:31;;;;;;;;;;;11.50;49.00;;;;;;2349475;57;20246;-75
2022/03/10 11:50:58;;;;;;;;;;;11.60;47.90;;;;;;2357215;53;20114;-76
2022/03/10 11:53:24;;;;;;;;;;;11.70;47.50;;;;;;2349406;57;20333;-75
2022/03/10 11:55:52;;;;;;;;;;;11.70;47.30;;;;;;2349677;57;20117;-76
2022/03/10 11:58:19;;;;;;;;;;;11.80;47.20;;;;;;2350052;57;20055;-75
2022/03/10 12:00:46;;;;;;;;;;;11.80;47.30;;;;;;2348305;57;20384;-76
2022/03/10 12:03:18;;;;;;;;;;;11.80;46.60;;;;;;2349734;57;20138;-75
2022/03/10 12:05:52;;;;;;;;;;;11.90;46.50;;;;;;2350027;57;20329;-75
2022/03/10 12:08:19;;;;;;;;;;;11.90;44.80;;;;;;2368847;53;20125;-75
2022/03/10 12:10:47;;;;;;;;;;;12.00;45.10;;;;;;2349781;57;20389;-76
2022/03/10 12:13:27;;;;;;;;;;;12.00;44.50;;;;;;2350045;57;20135;-75
2022/03/10 12:15:54;;;;;;;;;;;12.00;44.40;;;;;;2350425;57;20063;-76
2022/03/10 12:18:23;;;;;;;;;;;12.10;45.10;;;;;;2350341;57;20153;-75
2022/03/10 12:20:50;;;;;;;;;;;12.10;45.90;;;;;;2358972;53;20074;-76
2022/03/10 12:23:19;;;;;;;;;;;12.20;44.30;;;;;;2349078;57;20066;-75
2022/03/10 12:25:46;;;;;;;;;;;12.20;44.40;;;;;;2350221;57;20086;-76
2022/03/10 12:28:21;;;;;;;;;;;12.20;44.50;;;;;;2388056;53;20066;-75
2022/03/10 12:30:47;;;;;;;;;;;12.30;44.70;;;;;;2373642;53;20358;-75
2022/03/10 12:33:14;;;;;;;;;;;12.30;44.80;;;;;;2350403;57;20160;-75
2022/03/10 12:35:41;;;;;;;;;;;12.40;45.30;;;;;;2350259;57;20138;-76
2022/03/10 12:38:08;;;;;;;;;;;12.50;46.00;;;;;;2350280;57;20157;-75
2022/03/10 12:40:35;;;;;;;;;;;12.50;45.80;;;;;;2351603;53;20067;-78
2022/03/10 12:43:03;;;;;;;;;;;12.60;45.70;;;;;;2349733;57;20106;-76
2022/03/10 12:45:30;;;;;;;;;;;12.70;44.90;;;;;;2385384;53;20066;-75
2022/03/10 12:48:01;;;;;;;;;;;12.70;45.10;;;;;;2349686;57;20070;-75
2022/03/10 12:50:28;;;;;;;;;;;12.80;45.20;;;;;;2348897;57;20094;-75
2022/03/10 12:52:55;;;;;;;;;;;12.80;44.90;;;;;;2349610;57;20126;-75
2022/03/10 12:55:26;;;;;;;;;;;12.80;44.20;;;;;;2349791;57;20075;-75
2022/03/10 12:57:57;;;;;;;;;;;12.90;43.30;;;;;;2349422;57;20133;-75
2022/03/10 13:00:23;;;;;;;;;;;12.90;43.20;;;;;;2351507;52;67524;-81
2022/03/10 13:02:54;;;;;;;;;;;12.90;43.00;;;;;;2324270;58;20138;-82
2022/03/10 13:05:20;;;;;;;;;;;12.90;44.00;;;;;;2324087;58;20064;-82
2022/03/10 13:07:47;;;;;;;;;;;12.90;43.20;;;;;;2565818;54;20067;-81
2022/03/10 13:10:15;;;;;;;;;;;13.00;43.80;;;;;;2564005;54;20115;-81
2022/03/10 13:12:43;;;;;;;;;;;13.00;44.20;;;;;;2323723;58;20419;-82
2022/03/10 13:15:10;;;;;;;;;;;13.00;44.70;;;;;;2323600;58;20079;-82
2022/03/10 13:17:37;;;;;;;;;;;13.10;44.60;;;;;;2323945;58;20118;-83
2022/03/10 13:20:09;;;;;;;;;;;13.10;44.70;;;;;;2322937;58;20135;-82
2022/03/10 13:22:36;;;;;;;;;;;13.20;44.80;;;;;;2563173;54;20103;-81
2022/03/10 13:25:02;;;;;;;;;;;13.20;45.50;;;;;;2321863;58;20103;-80
2022/03/10 13:27:30;;;;;;;;;;;13.30;42.50;;;;;;2322737;58;21146;-81
2022/03/10 13:29:57;;;;;;;;;;;13.30;41.50;;;;;;2321846;58;20063;-81
2022/03/10 13:32:24;;;;;;;;;;;13.30;41.00;;;;;;2323072;58;20068;-81
2022/03/10 13:34:53;;;;;;;;;;;13.30;41.40;;;;;;2563979;54;20159;-81
2022/03/10 13:37:20;;;;;;;;;;;13.30;42.10;;;;;;2564257;54;20059;-82
2022/03/10 13:39:48;;;;;;;;;;;13.40;41.80;;;;;;2322708;58;20064;-81
2022/03/10 13:42:20;;;;;;;;;;;13.50;42.00;;;;;;2321572;58;20299;-80
2022/03/10 13:44:46;;;;;;;;;;;13.50;41.70;;;;;;2319691;58;20319;-79
2022/03/10 13:47:13;;;;;;;;;;;13.50;42.20;;;;;;2562933;54;20080;-79
2022/03/10 13:49:43;;;;;;;;;;;13.50;41.10;;;;;;2564203;54;20091;-82
2022/03/10 13:52:14;;;;;;;;;;;13.50;41.40;;;;;;2564358;54;20067;-83
2022/03/10 13:54:47;;;;;;;;;;;13.50;40.80;;;;;;2564443;54;20059;-81
2022/03/10 13:57:14;;;;;;;;;;;13.50;42.90;;;;;;2564558;54;20112;-81
2022/03/10 13:59:40;;;;;;;;;;;13.50;44.40;;;;;;2563722;54;20137;-78
2022/03/10 14:02:18;;;;;;;;;;;13.50;42.80;;;;;;2320087;58;20107;-81
2022/03/10 14:04:44;;;;;;;;;;;13.50;43.30;;;;;;2559797;54;20155;-80
2022/03/10 14:07:11;;;;;;;;;;;13.50;42.60;;;;;;2318703;58;20355;-80
2022/03/10 14:09:41;;;;;;;;;;;13.60;41.40;;;;;;2559129;54;20381;-82
2022/03/10 14:12:13;;;;;;;;;;;13.60;41.10;;;;;;2560741;54;20103;-81
2022/03/10 14:14:42;;;;;;;;;;;13.60;42.30;;;;;;2319059;58;20099;-81
2022/03/10 14:17:09;;;;;;;;;;;13.60;43.30;;;;;;2319136;58;20098;-80
2022/03/10 14:19:37;;;;;;;;;;;13.60;41.20;;;;;;2319421;58;20096;-83
2022/03/10 14:22:04;;;;;;;;;;;13.70;41.70;;;;;;2320703;58;20111;-82
2022/03/10 14:24:31;;;;;;;;;;;13.70;42.10;;;;;;2319067;58;20143;-82
2022/03/10 14:27:07;;;;;;;;;;;13.70;42.50;;;;;;2560360;54;20320;-81
2022/03/10 14:29:38;;;;;;;;;;;13.70;41.50;;;;;;2319519;58;20143;-83
2022/03/10 14:34:40;;;;;;;;;;;13.80;43.80;;;;;;2326772;57;20094;-75
2022/03/10 14:37:07;;;;;;;;;;;13.90;42.50;;;;;;2592978;53;20130;-74